createdAt,value
2022-08-20T00:02:11.858Z,3.10
2022-08-20T00:04:39.844Z,3.55
2022-08-20T00:07:07.353Z,3.33
2022-08-20T00:09:36.889Z,3.08
2022-08-20T00:12:05.082Z,3.00
2022-08-20T00:14:34.087Z,3.65
2022-08-20T00:17:01.974Z,3.65
2022-08-20T00:19:30.800Z,3.40
2022-08-20T00:21:58.772Z,3.30
2022-08-20T00:24:26.342Z,3.03
2022-08-20T00:26:53.777Z,3.20
2022-08-20T00:29:22.174Z,3.15
2022-08-20T00:31:50.027Z,2.97
2022-08-20T00:34:17.523Z,3.10
2022-08-20T00:36:46.926Z,3.40
2022-08-20T00:39:14.494Z,3.10
2022-08-20T00:41:41.903Z,3.17
2022-08-20T00:44:11.431Z,2.78
2022-08-20T00:46:39.513Z,3.30
2022-08-20T00:49:08.849Z,3.77
2022-08-20T00:51:38.234Z,2.85
2022-08-20T00:54:10.820Z,2.90
2022-08-20T00:56:38.727Z,3.47
2022-08-20T00:59:11.310Z,3.00
2022-08-20T01:01:54.954Z,3.53
2022-08-20T01:04:24.817Z,3.30
2022-08-20T01:06:52.372Z,3.28
2022-08-20T01:09:50.369Z,3.40
2022-08-20T01:12:08.888Z,3.40
2022-08-20T01:14:43.547Z,3.80
2022-08-20T01:17:13.475Z,3.60
2022-08-20T01:19:43.887Z,3.65
2022-08-20T01:22:27.206Z,3.70
2022-08-20T01:24:58.556Z,3.72
2022-08-20T01:27:27.890Z,3.50
2022-08-20T01:29:58.667Z,4.07
2022-08-20T01:32:26.183Z,4.03
2022-08-20T01:34:53.634Z,4.00
2022-08-20T01:37:21.152Z,3.58
2022-08-20T01:39:49.685Z,4.27
2022-08-20T01:42:20.407Z,3.55
2022-08-20T01:44:50.070Z,4.43
2022-08-20T01:47:20.104Z,4.30
2022-08-20T01:49:49.781Z,4.20
2022-08-20T01:52:23.159Z,4.27
2022-08-20T01:54:50.688Z,4.10
2022-08-20T01:57:19.956Z,4.40
2022-08-20T01:59:49.358Z,4.10
2022-08-20T02:02:16.906Z,4.40
2022-08-20T02:04:44.486Z,3.83
2022-08-20T02:07:14.956Z,4.15
2022-08-20T02:09:43.077Z,4.60
2022-08-20T02:12:10.947Z,4.30
2022-08-20T02:14:42.287Z,4.45
2022-08-20T02:17:11.619Z,4.57
2022-08-20T02:19:41.315Z,4.30
2022-08-20T02:22:12.296Z,4.25
2022-08-20T02:24:39.967Z,4.03
2022-08-20T02:27:07.425Z,3.83
2022-08-20T02:29:34.956Z,4.30
2022-08-20T02:32:32.563Z,4.72
2022-08-20T02:34:51.183Z,4.47
2022-08-20T02:37:19.167Z,4.43
2022-08-20T02:39:47.327Z,4.80
2022-08-20T02:42:15.062Z,4.73
2022-08-20T02:44:42.754Z,4.72
2022-08-20T02:47:10.220Z,4.50
2022-08-20T02:49:37.657Z,4.78
2022-08-20T02:52:07.092Z,5.03
2022-08-20T02:54:35.467Z,4.30
2022-08-20T02:57:03.646Z,4.50
2022-08-20T02:59:31.151Z,4.57
2022-08-20T03:02:00.617Z,5.25
2022-08-20T03:04:28.945Z,5.03
2022-08-20T03:06:56.371Z,4.77
2022-08-20T03:09:25.290Z,4.70
2022-08-20T03:11:52.808Z,4.90
2022-08-20T03:14:20.402Z,4.88
2022-08-20T03:16:47.846Z,4.57
2022-08-20T03:19:15.313Z,4.90
2022-08-20T03:21:42.799Z,5.47
2022-08-20T03:24:10.411Z,5.00
2022-08-20T03:26:39.242Z,5.10
2022-08-20T03:29:06.745Z,5.65
2022-08-20T03:31:34.271Z,5.07
2022-08-20T03:34:01.752Z,5.20
2022-08-20T03:36:30.030Z,5.13
2022-08-20T03:38:58.268Z,5.10
2022-08-20T03:41:25.788Z,4.90
2022-08-20T03:43:54.600Z,5.53
2022-08-20T03:46:23.405Z,5.30
2022-08-20T03:48:59.936Z,4.82
2022-08-20T03:51:28.115Z,5.18
2022-08-20T03:53:55.683Z,5.50
2022-08-20T03:56:23.124Z,5.07
2022-08-20T03:58:50.587Z,5.10
2022-08-20T04:01:44.261Z,5.70
2022-08-20T04:04:12.194Z,5.13
2022-08-20T04:06:40.408Z,5.13
2022-08-20T04:09:09.593Z,5.30
2022-08-20T04:11:39.269Z,5.63
2022-08-20T04:14:06.740Z,5.18
2022-08-20T04:16:36.423Z,5.40
2022-08-20T04:19:05.064Z,5.35
2022-08-20T04:21:33.382Z,4.80
2022-08-20T04:24:01.459Z,5.10
2022-08-20T04:26:28.902Z,5.22
2022-08-20T04:28:56.673Z,4.80
2022-08-20T04:31:25.852Z,5.28
2022-08-20T04:33:55.814Z,5.68
2022-08-20T04:36:23.236Z,5.25
2022-08-20T04:38:51.143Z,4.40
2022-08-20T04:41:23.112Z,4.68
2022-08-20T04:43:50.831Z,4.53
2022-08-20T04:46:18.252Z,5.35
2022-08-20T04:48:50.567Z,4.90
2022-08-20T04:51:19.539Z,5.30
2022-08-20T04:53:52.243Z,4.90
2022-08-20T04:56:23.524Z,5.03
2022-08-20T04:58:52.313Z,5.22
2022-08-20T05:01:19.959Z,4.80
2022-08-20T05:03:48.195Z,5.47
2022-08-20T05:06:16.096Z,6.25
2022-08-20T05:08:44.936Z,5.80
2022-08-20T05:11:35.553Z,5.30
2022-08-20T05:14:05.165Z,5.13
2022-08-20T05:16:37.687Z,5.30
2022-08-20T05:19:05.512Z,5.55
2022-08-20T05:21:33.024Z,5.45
2022-08-20T05:24:02.851Z,5.55
2022-08-20T05:26:30.345Z,6.00
2022-08-20T05:28:59.285Z,5.80
2022-08-20T05:31:32.537Z,5.40
2022-08-20T05:34:00.840Z,5.65
2022-08-20T05:36:28.325Z,5.93
2022-08-20T05:38:55.848Z,5.60
2022-08-20T05:41:29.143Z,6.00
2022-08-20T05:43:57.901Z,6.75
2022-08-20T05:46:25.425Z,7.50
2022-08-20T05:48:52.914Z,7.57
2022-08-20T05:51:20.385Z,7.47
2022-08-20T05:53:47.808Z,7.10
2022-08-20T05:56:15.274Z,7.35
2022-08-20T05:58:44.060Z,6.97
2022-08-20T06:01:11.812Z,7.53
2022-08-20T06:03:56.717Z,7.35
2022-08-20T06:06:45.902Z,7.27
2022-08-20T06:09:11.668Z,8.05
2022-08-20T06:11:39.132Z,7.55
2022-08-20T06:14:07.877Z,8.55
2022-08-20T06:16:37.296Z,7.88
2022-08-20T06:19:05.866Z,7.87
2022-08-20T06:21:33.363Z,7.88
2022-08-20T06:24:01.561Z,7.55
2022-08-20T06:26:30.902Z,7.53
2022-08-20T06:28:59.167Z,7.47
2022-08-20T06:31:28.262Z,7.20
2022-08-20T06:33:55.868Z,6.32
2022-08-20T06:36:23.535Z,5.88
2022-08-20T06:38:51.257Z,5.63
2022-08-20T06:41:18.842Z,5.10
2022-08-20T06:43:46.542Z,4.80
2022-08-20T06:46:14.552Z,4.25
2022-08-20T06:48:43.335Z,4.05
2022-08-20T06:51:10.921Z,4.43
2022-08-20T06:53:38.979Z,3.97
2022-08-20T06:56:06.680Z,3.90
2022-08-20T06:58:38.334Z,4.00
2022-08-20T07:01:09.932Z,3.33
2022-08-20T07:03:38.671Z,3.50
2022-08-20T07:06:08.340Z,3.17
2022-08-20T07:08:36.345Z,3.00
2022-08-20T07:11:03.812Z,2.90
2022-08-20T07:13:31.612Z,3.10
2022-08-20T07:16:00.245Z,2.80
2022-08-20T07:18:27.891Z,3.00
2022-08-20T07:20:57.432Z,2.90
2022-08-20T07:23:27.127Z,2.88
2022-08-20T07:25:55.953Z,2.65
2022-08-20T07:28:24.723Z,2.70
2022-08-20T07:31:12.516Z,2.80
2022-08-20T07:33:41.957Z,2.80
2022-08-20T07:36:10.088Z,2.80
2022-08-20T07:38:39.080Z,2.28
2022-08-20T07:41:08.676Z,2.38
2022-08-20T07:43:36.339Z,2.63
2022-08-20T07:46:09.357Z,2.33
2022-08-20T07:48:40.010Z,1.98
2022-08-20T07:51:08.611Z,2.28
2022-08-20T07:53:37.239Z,1.92
2022-08-20T07:56:07.659Z,1.70
2022-08-20T07:58:35.818Z,1.90
2022-08-20T08:01:03.731Z,1.73
2022-08-20T08:03:40.825Z,1.98
2022-08-20T08:06:29.631Z,1.85
2022-08-20T08:09:02.286Z,1.90
2022-08-20T08:11:32.176Z,1.60
2022-08-20T08:14:00.354Z,1.80
2022-08-20T08:16:28.972Z,1.92
2022-08-20T08:18:58.503Z,1.88
2022-08-20T08:21:27.250Z,1.80
2022-08-20T08:23:54.968Z,2.17
2022-08-20T08:26:22.616Z,1.63
2022-08-20T08:28:51.522Z,1.70
2022-08-20T08:31:19.049Z,2.10
2022-08-20T08:33:46.618Z,2.10
2022-08-20T08:36:15.054Z,2.50
2022-08-20T08:38:44.706Z,2.28
2022-08-20T08:41:14.939Z,1.90
2022-08-20T08:43:42.916Z,2.67
2022-08-20T08:46:12.421Z,2.15
2022-08-20T08:48:43.265Z,1.90
2022-08-20T08:51:12.450Z,1.80
2022-08-20T08:53:42.152Z,1.83
2022-08-20T08:56:09.922Z,2.38
2022-08-20T08:58:37.661Z,1.80
2022-08-20T09:01:53.101Z,1.50
2022-08-20T09:04:03.181Z,1.53
2022-08-20T09:06:32.123Z,1.42
2022-08-20T09:09:01.728Z,1.70
2022-08-20T09:11:29.834Z,1.80
2022-08-20T09:13:57.598Z,1.70
2022-08-20T09:16:28.695Z,1.80
2022-08-20T09:19:13.572Z,2.15
2022-08-20T09:21:41.283Z,1.90
2022-08-20T09:24:08.968Z,2.00
2022-08-20T09:26:39.177Z,1.60
2022-08-20T09:29:07.004Z,2.00
2022-08-20T09:31:37.341Z,1.20
2022-08-20T09:34:06.228Z,1.50
2022-08-20T09:36:35.252Z,1.30
2022-08-20T09:39:03.144Z,2.13
2022-08-20T09:41:31.050Z,1.63
2022-08-20T09:44:01.302Z,1.50
2022-08-20T09:46:28.732Z,1.55
2022-08-20T09:48:56.393Z,1.70
2022-08-20T09:51:23.927Z,1.77
2022-08-20T09:53:52.864Z,1.63
2022-08-20T09:56:20.579Z,1.83
2022-08-20T09:58:49.998Z,1.80
2022-08-20T10:01:18.930Z,1.90
2022-08-20T10:03:48.013Z,1.67
2022-08-20T10:06:16.684Z,1.90
2022-08-20T10:08:46.172Z,1.80
2022-08-20T10:11:15.079Z,2.00
2022-08-20T10:13:43.050Z,1.80
2022-08-20T10:16:10.942Z,1.98
2022-08-20T10:18:38.630Z,1.83
2022-08-20T10:21:09.907Z,1.98
2022-08-20T10:23:37.575Z,1.98
2022-08-20T10:26:05.236Z,1.83
2022-08-20T10:28:34.120Z,1.77
2022-08-20T10:31:01.724Z,1.90
2022-08-20T10:33:29.186Z,1.55
2022-08-20T10:35:59.929Z,1.70
2022-08-20T10:38:27.710Z,1.80
2022-08-20T10:40:55.162Z,1.70
2022-08-20T10:43:22.575Z,1.80
2022-08-20T10:45:51.405Z,2.00
2022-08-20T10:48:21.491Z,1.60
2022-08-20T10:50:49.223Z,1.60
2022-08-20T10:53:16.738Z,1.67
2022-08-20T10:55:44.336Z,2.23
2022-08-20T10:58:13.164Z,1.40
2022-08-20T11:00:41.126Z,1.65
2022-08-20T11:03:10.056Z,1.48
2022-08-20T11:05:37.561Z,1.60
2022-08-20T11:08:05.672Z,1.63
2022-08-20T11:10:34.325Z,1.90
2022-08-20T11:13:02.490Z,1.42
2022-08-20T11:15:30.224Z,1.65
2022-08-20T11:17:57.837Z,1.90
2022-08-20T11:20:27.079Z,1.43
2022-08-20T11:22:54.877Z,1.50
2022-08-20T11:25:24.592Z,1.90
2022-08-20T11:27:52.993Z,1.63
2022-08-20T11:30:21.931Z,1.50
2022-08-20T11:32:49.474Z,1.30
2022-08-20T11:38:06.328Z,1.60
2022-08-20T11:40:34.112Z,1.80
2022-08-20T11:43:18.040Z,1.48
2022-08-20T11:45:46.723Z,1.63
2022-08-20T11:48:14.231Z,1.98
2022-08-20T11:50:41.886Z,2.10
2022-08-20T11:53:10.625Z,1.90
2022-08-20T11:55:38.945Z,2.00
2022-08-20T11:58:06.779Z,1.87
2022-08-20T12:00:36.676Z,1.88
2022-08-20T12:03:05.841Z,1.85
2022-08-20T12:05:37.338Z,2.20
2022-08-20T12:08:08.378Z,2.13
2022-08-20T12:10:37.710Z,2.20
2022-08-20T12:13:05.385Z,1.80
2022-08-20T12:15:33.565Z,1.85
2022-08-20T12:18:03.856Z,2.08
2022-08-20T12:20:31.515Z,1.90
2022-08-20T12:23:00.904Z,1.80
2022-08-20T12:25:28.561Z,1.67
2022-08-20T12:27:57.576Z,1.50
2022-08-20T12:30:25.445Z,1.73
2022-08-20T12:32:53.106Z,1.75
2022-08-20T12:35:20.754Z,1.60
2022-08-20T12:37:48.239Z,1.67
2022-08-20T12:40:17.203Z,1.60
2022-08-20T12:42:53.187Z,1.20
2022-08-20T12:45:22.960Z,1.40
2022-08-20T12:47:50.647Z,1.87
2022-08-20T12:50:19.415Z,1.50
2022-08-20T12:52:48.088Z,1.48
2022-08-20T12:55:18.726Z,1.60
2022-08-20T12:57:48.236Z,1.48
2022-08-20T13:00:16.905Z,1.30
2022-08-20T13:02:47.604Z,1.50
2022-08-20T13:05:15.578Z,1.40
2022-08-20T13:07:43.637Z,1.70
2022-08-20T13:10:13.468Z,1.77
2022-08-20T13:12:41.085Z,1.60
2022-08-20T13:15:09.049Z,1.95
2022-08-20T13:17:38.865Z,1.92
2022-08-20T13:20:10.536Z,2.00
2022-08-20T13:22:38.411Z,1.70
2022-08-20T13:25:06.491Z,2.10
2022-08-20T13:27:33.960Z,2.17
2022-08-20T13:30:01.460Z,1.90
2022-08-20T13:32:29.012Z,1.73
2022-08-20T13:34:56.608Z,1.85
2022-08-20T13:37:28.397Z,1.70
2022-08-20T13:39:55.999Z,1.83
2022-08-20T13:42:23.824Z,1.98
2022-08-20T13:44:51.415Z,2.15
2022-08-20T13:47:19.769Z,1.58
2022-08-20T13:49:47.679Z,1.40
2022-08-20T13:52:16.985Z,1.55
2022-08-20T13:54:46.032Z,1.90
2022-08-20T13:57:16.866Z,1.70
2022-08-20T13:59:45.375Z,1.50
2022-08-20T14:02:13.399Z,1.80
2022-08-20T14:04:40.909Z,2.05
2022-08-20T14:07:12.316Z,2.00
2022-08-20T14:09:40.522Z,1.50
2022-08-20T14:12:09.888Z,1.70
2022-08-20T14:14:37.303Z,1.47
2022-08-20T14:17:19.605Z,1.30
2022-08-20T14:19:47.362Z,1.55
2022-08-20T14:22:14.905Z,1.60
2022-08-20T14:24:42.368Z,1.75
2022-08-20T14:27:11.229Z,1.50
2022-08-20T14:29:39.998Z,1.30
2022-08-20T14:32:08.171Z,1.40
2022-08-20T14:34:35.878Z,1.50
2022-08-20T14:37:13.799Z,1.30
2022-08-20T14:39:41.514Z,1.43
2022-08-20T14:42:09.149Z,1.42
2022-08-20T14:44:38.323Z,1.30
2022-08-20T14:47:12.658Z,1.35
2022-08-20T14:49:40.124Z,1.55
2022-08-20T14:52:07.871Z,1.40
2022-08-20T14:54:35.472Z,1.80
2022-08-20T14:57:03.059Z,1.20
2022-08-20T14:59:30.633Z,1.65
2022-08-20T15:01:59.815Z,1.40
2022-08-20T15:04:27.351Z,1.70
2022-08-20T15:06:54.918Z,1.80
2022-08-20T15:09:26.575Z,1.50
2022-08-20T15:11:54.016Z,1.80
2022-08-20T15:14:21.524Z,1.42
2022-08-20T15:16:49.104Z,1.50
2022-08-20T15:19:17.822Z,1.67
2022-08-20T15:21:45.851Z,1.90
2022-08-20T15:24:18.992Z,1.40
2022-08-20T15:26:47.219Z,1.30
2022-08-20T15:29:22.966Z,1.40
2022-08-20T15:31:51.157Z,1.40
2022-08-20T15:34:20.068Z,1.10
2022-08-20T15:36:47.613Z,1.10
2022-08-20T15:39:15.247Z,1.50
2022-08-20T15:41:42.772Z,1.30
2022-08-20T15:44:10.265Z,1.13
2022-08-20T15:46:39.622Z,1.15
2022-08-20T15:49:09.420Z,1.20
2022-08-20T15:51:40.711Z,1.40
2022-08-20T15:54:09.366Z,1.07
2022-08-20T15:56:51.684Z,1.10
2022-08-20T15:59:26.152Z,1.30
2022-08-20T16:02:02.177Z,1.20
2022-08-20T16:04:36.048Z,1.20
2022-08-20T16:07:08.220Z,1.37
2022-08-20T16:09:44.076Z,1.20
2022-08-20T16:12:13.252Z,1.48
2022-08-20T16:14:41.973Z,1.33
2022-08-20T16:17:10.883Z,1.42
2022-08-20T16:19:47.652Z,1.67
2022-08-20T16:22:18.746Z,1.60
2022-08-20T16:24:46.334Z,1.58
2022-08-20T16:27:19.995Z,1.70
2022-08-20T16:29:52.340Z,1.50
2022-08-20T16:32:26.072Z,1.60
2022-08-20T16:34:59.564Z,1.52
2022-08-20T16:37:31.943Z,1.77
2022-08-20T16:40:04.276Z,1.60
2022-08-20T16:42:34.417Z,1.70
2022-08-20T16:45:02.696Z,1.77
2022-08-20T16:47:31.860Z,1.50
2022-08-20T16:50:01.730Z,1.60
2022-08-20T16:52:32.993Z,1.60
2022-08-20T16:55:00.733Z,1.38
2022-08-20T16:57:34.942Z,1.53
2022-08-20T17:00:07.733Z,1.48
2022-08-20T17:02:35.235Z,2.15
2022-08-20T17:05:04.784Z,1.58
2022-08-20T17:07:46.219Z,1.60
2022-08-20T17:10:16.443Z,1.30
2022-08-20T17:12:44.401Z,1.50
2022-08-20T17:15:19.555Z,1.50
2022-08-20T17:17:47.314Z,1.58
2022-08-20T17:20:19.939Z,1.20
2022-08-20T17:22:50.827Z,1.40
2022-08-20T17:25:19.256Z,1.50
2022-08-20T17:27:47.255Z,4.32
2022-08-20T17:30:22.045Z,5.45
2022-08-20T17:32:57.362Z,2.10
2022-08-20T17:35:30.960Z,1.47
2022-08-20T17:38:00.981Z,1.30
2022-08-20T17:40:31.139Z,1.50
2022-08-20T17:43:01.517Z,1.58
2022-08-20T17:45:31.652Z,1.30
2022-08-20T17:48:00.618Z,1.20
2022-08-20T17:50:33.972Z,1.50
2022-08-20T17:53:05.584Z,1.10
2022-08-20T17:55:34.617Z,1.50
2022-08-20T17:58:04.326Z,1.30
2022-08-20T18:00:31.939Z,1.40
2022-08-20T18:03:00.799Z,1.73
2022-08-20T18:05:29.532Z,1.35
2022-08-20T18:08:08.558Z,1.40
2022-08-20T18:10:39.512Z,1.60
2022-08-20T18:13:10.795Z,1.17
2022-08-20T18:15:40.297Z,1.13
2022-08-20T18:18:14.757Z,1.50
2022-08-20T18:20:57.120Z,1.40
2022-08-20T18:23:28.515Z,1.25
2022-08-20T18:25:58.408Z,1.35
2022-08-20T18:28:30.719Z,1.23
2022-08-20T18:31:03.344Z,1.45
2022-08-20T18:33:32.178Z,1.10
2022-08-20T18:36:07.966Z,1.35
2022-08-20T18:38:38.467Z,1.30
2022-08-20T18:41:07.422Z,1.60
2022-08-20T18:43:35.827Z,1.42
2022-08-20T18:46:14.199Z,1.58
2022-08-20T18:48:51.556Z,1.52
2022-08-20T18:51:20.831Z,1.42
2022-08-20T18:53:51.990Z,1.47
2022-08-20T18:56:30.062Z,1.65
2022-08-20T18:59:00.238Z,1.48
2022-08-20T19:01:27.766Z,1.45
2022-08-20T19:03:58.006Z,1.77
2022-08-20T19:06:29.234Z,1.57
2022-08-20T19:09:01.368Z,1.80
2022-08-20T19:11:43.733Z,1.35
2022-08-20T19:14:38.001Z,1.90
2022-08-20T19:17:07.296Z,1.50
2022-08-20T19:19:34.744Z,1.50
2022-08-20T19:22:03.163Z,1.75
2022-08-20T19:24:33.824Z,1.85
2022-08-20T19:27:04.346Z,2.00
2022-08-20T19:29:33.980Z,1.58
2022-08-20T19:32:01.872Z,1.90
2022-08-20T19:34:31.047Z,1.70
2022-08-20T19:37:07.761Z,1.77
2022-08-20T19:39:50.797Z,1.90
2022-08-20T19:42:19.430Z,1.90
2022-08-20T19:44:56.692Z,1.80
2022-08-20T19:47:28.582Z,2.83
2022-08-20T19:49:59.316Z,3.88
2022-08-20T19:52:34.100Z,3.10
2022-08-20T19:55:03.997Z,2.90
2022-08-20T19:57:31.873Z,2.57
2022-08-20T20:00:00.485Z,2.58
2022-08-20T20:02:29.469Z,3.45
2022-08-20T20:04:57.989Z,3.30
2022-08-20T20:07:28.193Z,3.72
2022-08-20T20:09:57.517Z,3.73
2022-08-20T20:12:26.274Z,3.50
2022-08-20T20:14:54.990Z,4.22
2022-08-20T20:17:24.440Z,4.85
2022-08-20T20:19:56.833Z,5.88
2022-08-20T20:22:26.883Z,7.20
2022-08-20T20:25:06.255Z,10.40
2022-08-20T20:27:36.442Z,10.88
2022-08-20T20:30:05.964Z,12.35
2022-08-20T20:32:34.445Z,10.88
2022-08-20T20:35:03.087Z,10.27
2022-08-20T20:37:47.952Z,9.23
2022-08-20T20:40:22.693Z,9.38
2022-08-20T20:42:58.885Z,9.95
2022-08-20T20:45:31.504Z,11.05
2022-08-20T20:47:59.012Z,10.63
2022-08-20T20:50:28.433Z,9.50
2022-08-20T20:52:56.363Z,8.63
2022-08-20T20:55:25.247Z,8.15
2022-08-20T20:57:53.167Z,7.40
2022-08-20T21:00:22.873Z,7.90
2022-08-20T21:02:50.709Z,6.55
2022-08-20T21:05:19.336Z,6.88
2022-08-20T21:07:50.686Z,6.03
2022-08-20T21:10:19.237Z,6.40
2022-08-20T21:12:51.931Z,5.97
2022-08-20T21:15:20.388Z,5.55
2022-08-20T21:17:49.240Z,4.90
2022-08-20T21:20:17.063Z,4.82
2022-08-20T21:22:44.571Z,4.38
2022-08-20T21:25:12.351Z,4.47
2022-08-20T21:27:42.879Z,3.75
2022-08-20T21:30:10.668Z,4.18
2022-08-20T21:32:38.103Z,3.88
2022-08-20T21:35:07.875Z,3.60
2022-08-20T21:37:35.279Z,3.90
2022-08-20T21:40:03.459Z,3.75
2022-08-20T21:42:31.308Z,3.33
2022-08-20T21:44:59.005Z,3.53
2022-08-20T21:47:27.461Z,3.60
2022-08-20T21:49:55.325Z,2.90
2022-08-20T21:52:24.116Z,3.17
2022-08-20T21:54:52.643Z,3.15
2022-08-20T21:57:21.244Z,3.10
2022-08-20T21:59:48.736Z,3.33
2022-08-20T22:02:16.803Z,3.40
2022-08-20T22:04:44.235Z,3.10
2022-08-20T22:07:11.756Z,3.15
2022-08-20T22:09:40.551Z,3.10
2022-08-20T22:12:12.226Z,3.15
2022-08-20T22:14:39.710Z,3.17
2022-08-20T22:17:07.211Z,3.75
2022-08-20T22:19:34.655Z,3.90
2022-08-20T22:22:02.012Z,3.53
2022-08-20T22:24:29.842Z,3.80
2022-08-20T22:26:58.771Z,3.80
2022-08-20T22:29:26.436Z,4.60
2022-08-20T22:31:53.917Z,4.57
2022-08-20T22:34:21.846Z,4.32
2022-08-20T22:36:49.921Z,4.22
2022-08-20T22:39:17.407Z,4.10
2022-08-20T22:41:44.907Z,4.55
2022-08-20T22:44:13.787Z,4.63
2022-08-20T22:46:47.012Z,4.40
2022-08-20T22:49:18.643Z,4.20
2022-08-20T22:51:46.194Z,4.03
2022-08-20T22:54:16.535Z,3.78
2022-08-20T22:56:44.019Z,3.83
2022-08-20T22:59:11.503Z,3.95
2022-08-20T23:01:40.944Z,4.15
2022-08-20T23:04:12.775Z,3.40
2022-08-20T23:06:40.232Z,3.15
2022-08-20T23:09:07.735Z,2.90
2022-08-20T23:11:40.316Z,3.35
2022-08-20T23:14:08.133Z,3.35
2022-08-20T23:16:35.820Z,3.17
2022-08-20T23:19:04.863Z,3.13
2022-08-20T23:21:32.400Z,3.40
2022-08-20T23:23:59.880Z,2.90
2022-08-20T23:26:27.414Z,3.03
2022-08-20T23:28:54.942Z,2.90
2022-08-20T23:31:22.870Z,2.92
2022-08-20T23:33:50.438Z,3.40
2022-08-20T23:36:20.162Z,3.20
2022-08-20T23:38:47.628Z,3.20
2022-08-20T23:41:15.132Z,2.90
2022-08-20T23:43:44.007Z,2.97
2022-08-20T23:46:11.912Z,2.88
2022-08-20T23:48:39.585Z,2.63
2022-08-20T23:51:07.272Z,2.60
2022-08-20T23:53:36.543Z,2.70
2022-08-20T23:56:04.279Z,2.83
2022-08-20T23:58:31.785Z,2.55
